Time;durP1;ratioP1;P1;durP2;ratioP2;P2;SDS_P1;SDS_P2;PMS_P1;PMS_P2;Temp;Humidity;BMP_temperature;BMP_pressure;BME280_temperature;BME280_humidity;BME280_pressure;Samples;Min_cycle;Max_cycle;Signal;HPM_P1;HPM_P2
2023/01/20 00:00:40;;;;;;;13.10;10.40;;;;;;;;;;5016205;28;20224;-59
2023/01/20 00:03:07;;;;;;;13.97;10.43;;;;;;;;;;5011563;28;20246;-59
2023/01/20 00:05:36;;;;;;;10.47;9.07;;;;;;;;;;5013494;28;20200;-57
2023/01/20 00:08:03;;;;;;;11.73;9.20;;;;;;;;;;5012433;28;20197;-59
2023/01/20 00:10:30;;;;;;;12.87;9.87;;;;;;;;;;5021143;28;20200;-59
2023/01/20 00:12:57;;;;;;;13.00;9.83;;;;;;;;;;5017795;28;20215;-58
2023/01/20 00:15:24;;;;;;;12.17;9.57;;;;;;;;;;5021163;28;20228;-58
2023/01/20 00:17:51;;;;;;;13.73;11.17;;;;;;;;;;5015372;28;20405;-58
2023/01/20 00:20:19;;;;;;;12.10;9.70;;;;;;;;;;5011911;28;20213;-56
2023/01/20 00:22:47;;;;;;;11.00;9.27;;;;;;;;;;5017174;28;20283;-60
2023/01/20 00:25:14;;;;;;;11.90;9.43;;;;;;;;;;5011705;28;20196;-61
2023/01/20 00:27:41;;;;;;;13.07;10.43;;;;;;;;;;5012405;28;20236;-59
2023/01/20 00:30:10;;;;;;;11.33;10.13;;;;;;;;;;5008664;28;20469;-61
2023/01/20 00:32:38;;;;;;;12.23;10.80;;;;;;;;;;5004513;28;20208;-61
2023/01/20 00:35:05;;;;;;;12.50;10.13;;;;;;;;;;5008641;28;20239;-61
2023/01/20 00:37:33;;;;;;;15.27;10.80;;;;;;;;;;5011056;28;20220;-60
2023/01/20 00:40:01;;;;;;;12.77;10.90;;;;;;;;;;5012473;28;20283;-60
2023/01/20 00:42:28;;;;;;;15.87;11.53;;;;;;;;;;5009047;28;20232;-60
2023/01/20 00:44:56;;;;;;;14.23;11.37;;;;;;;;;;5005733;28;20486;-61
2023/01/20 00:47:23;;;;;;;13.63;11.33;;;;;;;;;;5000935;28;20210;-60
2023/01/20 00:49:51;;;;;;;13.70;10.27;;;;;;;;;;5005268;28;20204;-59
2023/01/20 00:52:18;;;;;;;12.00;10.70;;;;;;;;;;5008152;28;20220;-61
2023/01/20 00:54:45;;;;;;;11.83;10.07;;;;;;;;;;5014235;28;20231;-60
2023/01/20 00:57:14;;;;;;;12.17;10.30;;;;;;;;;;5018170;28;20218;-61
2023/01/20 00:59:41;;;;;;;11.03;9.83;;;;;;;;;;5010128;28;20211;-60
2023/01/20 01:02:08;;;;;;;12.27;9.97;;;;;;;;;;5010602;28;20200;-61
2023/01/20 01:04:35;;;;;;;12.70;10.67;;;;;;;;;;5010656;28;20208;-59
2023/01/20 01:07:02;;;;;;;15.53;11.30;;;;;;;;;;5016478;28;20299;-62
2023/01/20 01:09:31;;;;;;;14.83;11.10;;;;;;;;;;5013269;28;20323;-60
2023/01/20 01:11:58;;;;;;;12.37;10.50;;;;;;;;;;5013197;28;20215;-62
2023/01/20 01:14:27;;;;;;;11.57;10.37;;;;;;;;;;5008516;28;20453;-58
2023/01/20 01:16:54;;;;;;;13.07;10.43;;;;;;;;;;5002542;28;20207;-61
2023/01/20 01:19:21;;;;;;;13.27;10.53;;;;;;;;;;5005462;28;20239;-60
2023/01/20 01:21:48;;;;;;;12.67;10.83;;;;;;;;;;5004984;28;20200;-60
2023/01/20 01:24:15;;;;;;;12.20;9.60;;;;;;;;;;5003345;28;20200;-61
2023/01/20 01:26:42;;;;;;;13.30;10.63;;;;;;;;;;5000557;28;20228;-58
2023/01/20 01:29:09;;;;;;;14.70;10.73;;;;;;;;;;5007327;28;20196;-57
2023/01/20 01:31:38;;;;;;;13.27;10.53;;;;;;;;;;5004008;28;20204;-59
2023/01/20 01:34:05;;;;;;;12.60;10.67;;;;;;;;;;4997700;28;20211;-60
2023/01/20 01:36:32;;;;;;;13.70;10.87;;;;;;;;;;4996786;28;20220;-57
2023/01/20 01:38:59;;;;;;;11.87;10.00;;;;;;;;;;4999034;28;20533;-61
2023/01/20 01:41:27;;;;;;;10.53;9.43;;;;;;;;;;4997417;28;20215;-59
2023/01/20 01:44:01;;;;;;;13.63;10.47;;;;;;;;;;4998004;28;20208;-60
2023/01/20 01:46:28;;;;;;;11.73;10.23;;;;;;;;;;4996638;28;20211;-58
2023/01/20 01:48:58;;;;;;;14.17;10.53;;;;;;;;;;4995809;28;20219;-60
2023/01/20 01:51:26;;;;;;;11.97;10.43;;;;;;;;;;4997635;28;20216;-61
2023/01/20 01:53:56;;;;;;;11.43;9.80;;;;;;;;;;5000594;28;20348;-60
2023/01/20 01:56:24;;;;;;;14.87;10.63;;;;;;;;;;4994973;28;20377;-60
2023/01/20 01:58:52;;;;;;;13.47;11.00;;;;;;;;;;5000614;28;20528;-60
2023/01/20 02:01:19;;;;;;;16.07;11.40;;;;;;;;;;4998971;28;20207;-59
2023/01/20 02:03:50;;;;;;;11.97;10.57;;;;;;;;;;4999667;28;20204;-60
2023/01/20 02:06:19;;;;;;;12.40;10.47;;;;;;;;;;4999859;28;20207;-62
2023/01/20 02:08:46;;;;;;;15.43;10.80;;;;;;;;;;4997643;28;20258;-60
2023/01/20 02:11:13;;;;;;;11.50;9.93;;;;;;;;;;5002543;28;20202;-60
2023/01/20 02:13:40;;;;;;;13.60;10.30;;;;;;;;;;5000409;28;20200;-59
2023/01/20 02:16:13;;;;;;;13.27;10.67;;;;;;;;;;5000926;28;20649;-59
2023/01/20 02:18:47;;;;;;;14.30;10.67;;;;;;;;;;4999401;28;20200;-60
2023/01/20 02:21:24;;;;;;;11.40;10.20;;;;;;;;;;4996708;28;20203;-61
2023/01/20 02:24:02;;;;;;;12.20;10.63;;;;;;;;;;4997168;28;20203;-60
2023/01/20 02:26:52;;;;;;;14.17;10.57;;;;;;;;;;5003063;28;20238;-60
2023/01/20 02:29:47;;;;;;;12.17;10.30;;;;;;;;;;4997256;28;20220;-56
2023/01/20 02:32:23;;;;;;;12.20;10.67;;;;;;;;;;5001503;28;20673;-59
2023/01/20 02:34:53;;;;;;;15.40;10.50;;;;;;;;;;4999036;28;21463;-58
2023/01/20 02:37:23;;;;;;;13.93;10.43;;;;;;;;;;4997951;28;20224;-59
2023/01/20 02:39:55;;;;;;;13.57;10.53;;;;;;;;;;4996493;28;20196;-59
2023/01/20 02:42:25;;;;;;;12.27;10.63;;;;;;;;;;5008451;28;20303;-60
2023/01/20 02:44:54;;;;;;;13.50;10.23;;;;;;;;;;5004538;28;20196;-60
2023/01/20 02:47:25;;;;;;;12.43;10.63;;;;;;;;;;5004515;28;20207;-61
2023/01/20 02:49:54;;;;;;;14.37;10.70;;;;;;;;;;5005764;28;20281;-58
2023/01/20 02:52:23;;;;;;;13.73;10.80;;;;;;;;;;5010744;28;20297;-61
2023/01/20 02:54:52;;;;;;;13.80;10.77;;;;;;;;;;5009762;28;20199;-60
2023/01/20 02:57:23;;;;;;;11.67;10.47;;;;;;;;;;5013965;28;20224;-61
2023/01/20 02:59:53;;;;;;;12.30;10.63;;;;;;;;;;5006621;28;20200;-60
2023/01/20 03:02:21;;;;;;;12.27;10.80;;;;;;;;;;5013159;28;20204;-61
2023/01/20 03:04:51;;;;;;;13.07;10.90;;;;;;;;;;5013195;28;20192;-60
2023/01/20 03:07:21;;;;;;;14.03;10.47;;;;;;;;;;5011285;28;20200;-61
2023/01/20 03:09:49;;;;;;;16.47;12.10;;;;;;;;;;5008311;28;20204;-60
2023/01/20 03:12:21;;;;;;;14.33;11.47;;;;;;;;;;5005591;28;20321;-59
2023/01/20 03:14:48;;;;;;;19.17;11.90;;;;;;;;;;5012576;28;20208;-60
2023/01/20 03:17:15;;;;;;;13.70;11.43;;;;;;;;;;5004616;28;20232;-59
2023/01/20 03:19:43;;;;;;;17.10;12.43;;;;;;;;;;5004164;28;20307;-57
2023/01/20 03:22:11;;;;;;;17.30;12.10;;;;;;;;;;5007194;28;21576;-61
2023/01/20 03:24:39;;;;;;;14.17;10.87;;;;;;;;;;5002175;28;20203;-57
2023/01/20 03:27:06;;;;;;;15.00;11.40;;;;;;;;;;5007348;28;20426;-61
2023/01/20 03:29:33;;;;;;;14.30;11.50;;;;;;;;;;5007241;28;20208;-60
2023/01/20 03:32:02;;;;;;;18.40;13.23;;;;;;;;;;5004239;28;20209;-59
2023/01/20 03:34:30;;;;;;;15.00;12.20;;;;;;;;;;5005425;28;20350;-59
2023/01/20 03:36:58;;;;;;;17.70;11.80;;;;;;;;;;5005982;28;20388;-60
2023/01/20 03:39:27;;;;;;;14.17;10.93;;;;;;;;;;5005515;28;20213;-59
2023/01/20 03:42:00;;;;;;;12.03;9.83;;;;;;;;;;5001149;28;20505;-60
2023/01/20 03:44:33;;;;;;;13.43;10.27;;;;;;;;;;5005424;28;20496;-60
2023/01/20 03:47:08;;;;;;;12.83;9.70;;;;;;;;;;5009863;28;20345;-60
2023/01/20 03:49:39;;;;;;;15.20;9.83;;;;;;;;;;5009893;28;20212;-59
2023/01/20 03:52:09;;;;;;;11.87;9.13;;;;;;;;;;5007054;28;20283;-61
2023/01/20 03:54:44;;;;;;;11.63;9.47;;;;;;;;;;5011340;28;20216;-61
2023/01/20 03:57:13;;;;;;;11.20;8.97;;;;;;;;;;5006782;28;20580;-59
2023/01/20 03:59:42;;;;;;;10.37;8.57;;;;;;;;;;5010947;28;20216;-60
2023/01/20 04:02:10;;;;;;;13.03;9.97;;;;;;;;;;5012616;28;20391;-60
2023/01/20 04:04:38;;;;;;;14.20;9.50;;;;;;;;;;5012233;28;20204;-54
2023/01/20 04:07:06;;;;;;;13.50;9.93;;;;;;;;;;5005939;28;20287;-59
2023/01/20 04:09:36;;;;;;;15.03;10.47;;;;;;;;;;5008024;28;20212;-60
2023/01/20 04:12:05;;;;;;;12.80;8.93;;;;;;;;;;5006856;28;20212;-59
2023/01/20 04:14:32;;;;;;;16.07;11.20;;;;;;;;;;5015110;28;20212;-58
2023/01/20 04:16:59;;;;;;;12.50;10.43;;;;;;;;;;5007993;28;20252;-60
2023/01/20 04:19:27;;;;;;;13.17;10.90;;;;;;;;;;5013070;28;20200;-60
2023/01/20 04:21:59;;;;;;;14.60;11.53;;;;;;;;;;5015418;28;20203;-59
2023/01/20 04:24:29;;;;;;;15.27;12.17;;;;;;;;;;5013022;28;20196;-59
2023/01/20 04:26:56;;;;;;;12.73;10.03;;;;;;;;;;5013412;28;20282;-59
2023/01/20 04:29:25;;;;;;;13.10;11.13;;;;;;;;;;5010848;28;20212;-57
2023/01/20 04:31:58;;;;;;;13.27;10.70;;;;;;;;;;5012587;28;20427;-61
2023/01/20 04:34:25;;;;;;;16.17;12.37;;;;;;;;;;5006525;28;20286;-56
2023/01/20 04:36:52;;;;;;;16.17;11.13;;;;;;;;;;5004350;28;20223;-60
2023/01/20 04:39:20;;;;;;;17.47;12.90;;;;;;;;;;5006956;28;20523;-60
2023/01/20 04:41:47;;;;;;;17.87;11.73;;;;;;;;;;5010195;28;20196;-61
2023/01/20 04:44:14;;;;;;;15.60;11.80;;;;;;;;;;5013278;28;20211;-60
2023/01/20 04:46:42;;;;;;;16.10;11.53;;;;;;;;;;5007440;28;20206;-57
2023/01/20 04:49:10;;;;;;;14.57;11.60;;;;;;;;;;5010260;28;20208;-61
2023/01/20 04:51:37;;;;;;;15.17;10.83;;;;;;;;;;5010503;28;20201;-59
2023/01/20 04:54:04;;;;;;;14.70;11.37;;;;;;;;;;5008509;28;20210;-61
2023/01/20 04:56:31;;;;;;;13.07;10.37;;;;;;;;;;5009084;28;20216;-59
2023/01/20 04:58:58;;;;;;;14.80;11.43;;;;;;;;;;5007481;28;20206;-59
2023/01/20 05:01:26;;;;;;;14.33;11.07;;;;;;;;;;5011694;28;20208;-60
2023/01/20 05:03:54;;;;;;;13.27;10.73;;;;;;;;;;5011886;28;20200;-60
2023/01/20 05:06:21;;;;;;;13.40;10.67;;;;;;;;;;5014117;28;20235;-60
2023/01/20 05:08:48;;;;;;;14.00;10.93;;;;;;;;;;5010102;28;20204;-61
2023/01/20 05:11:16;;;;;;;13.77;10.70;;;;;;;;;;5012137;28;20216;-57
2023/01/20 05:13:43;;;;;;;15.23;11.17;;;;;;;;;;5002577;28;20233;-60
2023/01/20 05:16:11;;;;;;;13.43;10.30;;;;;;;;;;5015238;28;20311;-61
2023/01/20 05:18:38;;;;;;;12.97;10.27;;;;;;;;;;5010335;28;20204;-60
2023/01/20 05:21:07;;;;;;;13.97;10.53;;;;;;;;;;5006214;28;20215;-59
2023/01/20 05:23:34;;;;;;;14.70;10.20;;;;;;;;;;5010295;28;20203;-60
2023/01/20 05:26:02;;;;;;;13.63;10.83;;;;;;;;;;5009737;28;20204;-57
2023/01/20 05:28:29;;;;;;;14.90;11.10;;;;;;;;;;5002802;28;20240;-60
2023/01/20 05:30:56;;;;;;;13.73;11.53;;;;;;;;;;5006904;28;20196;-61
2023/01/20 05:33:23;;;;;;;13.30;10.47;;;;;;;;;;5015862;28;20338;-61
2023/01/20 05:35:50;;;;;;;14.27;10.93;;;;;;;;;;5010155;28;20239;-61
2023/01/20 05:38:19;;;;;;;11.57;9.93;;;;;;;;;;5002567;28;20224;-60
2023/01/20 05:40:46;;;;;;;14.40;10.60;;;;;;;;;;5007672;28;20212;-61
2023/01/20 05:43:13;;;;;;;14.40;11.33;;;;;;;;;;5000820;28;20246;-61
2023/01/20 05:45:41;;;;;;;16.30;11.90;;;;;;;;;;5007819;28;20430;-61
2023/01/20 05:48:09;;;;;;;13.50;11.23;;;;;;;;;;5007668;28;20204;-60
2023/01/20 05:50:36;;;;;;;14.40;10.87;;;;;;;;;;5008701;28;20214;-60
2023/01/20 05:53:03;;;;;;;13.23;11.20;;;;;;;;;;5011773;28;20264;-61
2023/01/20 05:55:31;;;;;;;14.00;10.73;;;;;;;;;;5016686;28;20222;-60
2023/01/20 05:58:01;;;;;;;15.20;10.73;;;;;;;;;;5015595;28;20224;-59
2023/01/20 06:00:28;;;;;;;14.27;10.73;;;;;;;;;;5011200;28;20255;-60
2023/01/20 06:02:56;;;;;;;18.33;11.80;;;;;;;;;;5010902;28;20689;-61
2023/01/20 06:05:23;;;;;;;15.87;12.13;;;;;;;;;;5007838;28;20201;-60
2023/01/20 06:07:50;;;;;;;16.80;11.00;;;;;;;;;;5009246;28;20308;-61
2023/01/20 06:10:17;;;;;;;13.23;10.53;;;;;;;;;;5014734;28;20200;-57
2023/01/20 06:12:51;;;;;;;14.17;11.30;;;;;;;;;;5009125;28;20242;-58
2023/01/20 06:15:18;;;;;;;15.47;10.60;;;;;;;;;;5009126;28;20200;-57
2023/01/20 06:17:45;;;;;;;13.77;10.87;;;;;;;;;;5010822;28;20224;-59
2023/01/20 06:20:13;;;;;;;13.83;9.97;;;;;;;;;;5008137;28;20201;-58
2023/01/20 06:22:40;;;;;;;13.30;11.13;;;;;;;;;;5012363;28;20204;-59
2023/01/20 06:25:07;;;;;;;15.07;10.57;;;;;;;;;;5007270;28;20404;-61
2023/01/20 06:27:34;;;;;;;14.13;10.30;;;;;;;;;;5010363;28;20267;-61
2023/01/20 06:30:03;;;;;;;12.10;10.47;;;;;;;;;;5009854;28;20262;-61
2023/01/20 06:32:30;;;;;;;13.17;11.03;;;;;;;;;;5013542;28;20211;-58
2023/01/20 06:34:57;;;;;;;15.53;11.73;;;;;;;;;;5012939;28;20196;-59
2023/01/20 06:37:25;;;;;;;17.67;11.80;;;;;;;;;;5015134;28;20457;-59
2023/01/20 06:39:52;;;;;;;16.93;12.20;;;;;;;;;;5012960;28;20200;-60
2023/01/20 06:42:19;;;;;;;16.83;11.87;;;;;;;;;;5014993;28;20215;-60
2023/01/20 06:44:46;;;;;;;15.37;11.67;;;;;;;;;;5010815;28;20208;-59
2023/01/20 06:47:16;;;;;;;13.37;10.77;;;;;;;;;;5014366;28;20196;-60
2023/01/20 06:49:43;;;;;;;14.53;10.40;;;;;;;;;;5012115;28;20493;-59
2023/01/20 06:52:10;;;;;;;15.67;11.20;;;;;;;;;;5015287;28;20208;-60
2023/01/20 06:54:37;;;;;;;11.40;10.10;;;;;;;;;;5014103;28;20196;-59
2023/01/20 06:57:04;;;;;;;17.03;11.23;;;;;;;;;;5015473;28;20387;-59
2023/01/20 06:59:32;;;;;;;13.80;10.13;;;;;;;;;;5011089;28;20204;-59
2023/01/20 07:01:59;;;;;;;14.60;10.40;;;;;;;;;;5011680;28;20201;-61
2023/01/20 07:04:27;;;;;;;13.67;10.43;;;;;;;;;;5007377;28;20208;-61
2023/01/20 07:06:54;;;;;;;14.50;10.00;;;;;;;;;;5009901;28;20235;-59
2023/01/20 07:09:21;;;;;;;16.50;11.70;;;;;;;;;;5114158;22;20546;-58
2023/01/20 07:11:49;;;;;;;17.27;11.90;;;;;;;;;;5010501;28;20215;-57
2023/01/20 07:14:16;;;;;;;14.57;10.77;;;;;;;;;;5006962;28;20200;-56
2023/01/20 07:16:43;;;;;;;13.37;10.73;;;;;;;;;;5013863;28;20231;-58
2023/01/20 07:19:10;;;;;;;15.33;10.90;;;;;;;;;;5011786;28;20204;-59
2023/01/20 07:21:39;;;;;;;11.97;9.63;;;;;;;;;;5006406;28;20329;-57
2023/01/20 07:24:06;;;;;;;12.43;9.87;;;;;;;;;;5003378;28;20225;-57
2023/01/20 07:26:35;;;;;;;12.60;10.27;;;;;;;;;;5004475;28;20232;-57
2023/01/20 07:29:02;;;;;;;17.10;11.73;;;;;;;;;;5012104;28;20197;-55
2023/01/20 07:31:30;;;;;;;15.20;11.60;;;;;;;;;;5009045;28;20209;-56
2023/01/20 07:33:58;;;;;;;15.53;11.97;;;;;;;;;;5021595;28;20214;-56
2023/01/20 07:36:26;;;;;;;14.50;11.13;;;;;;;;;;5016516;28;20258;-55
2023/01/20 07:38:55;;;;;;;15.27;11.07;;;;;;;;;;5016438;28;20224;-58
2023/01/20 07:41:22;;;;;;;15.37;12.07;;;;;;;;;;5016410;28;20208;-58
2023/01/20 07:43:50;;;;;;;15.27;11.83;;;;;;;;;;5016365;28;20205;-59
2023/01/20 07:46:18;;;;;;;16.50;12.00;;;;;;;;;;5015685;28;20200;-60
2023/01/20 07:48:46;;;;;;;15.57;12.00;;;;;;;;;;5016732;28;20204;-60
2023/01/20 07:51:14;;;;;;;15.53;12.10;;;;;;;;;;5012327;28;20293;-58
2023/01/20 07:53:45;;;;;;;15.27;12.43;;;;;;;;;;5014114;28;20212;-58
2023/01/20 07:56:15;;;;;;;16.43;11.97;;;;;;;;;;5016788;28;20243;-58
2023/01/20 07:58:44;;;;;;;13.20;10.03;;;;;;;;;;5009152;28;21394;-58
2023/01/20 08:01:11;;;;;;;14.07;11.10;;;;;;;;;;5013222;28;20214;-58
2023/01/20 08:03:38;;;;;;;13.33;10.43;;;;;;;;;;5017193;28;20295;-55
2023/01/20 08:06:06;;;;;;;19.13;12.27;;;;;;;;;;5009617;28;20215;-58
2023/01/20 08:08:34;;;;;;;14.40;10.53;;;;;;;;;;5013636;28;20438;-58
2023/01/20 08:11:01;;;;;;;17.30;12.17;;;;;;;;;;5019979;28;20235;-57
2023/01/20 08:13:30;;;;;;;18.30;12.90;;;;;;;;;;5018506;28;20309;-58
2023/01/20 08:16:00;;;;;;;16.00;12.70;;;;;;;;;;5012762;28;20209;-59
2023/01/20 08:18:27;;;;;;;15.87;11.83;;;;;;;;;;5015435;28;20266;-55
2023/01/20 08:20:54;;;;;;;17.47;11.77;;;;;;;;;;5013184;28;20268;-59
2023/01/20 08:23:21;;;;;;;16.50;11.93;;;;;;;;;;5016852;28;20212;-57
2023/01/20 08:25:48;;;;;;;15.60;11.80;;;;;;;;;;5010584;28;20248;-58
2023/01/20 08:28:16;;;;;;;16.07;11.30;;;;;;;;;;5014287;28;20196;-57
2023/01/20 08:30:44;;;;;;;18.37;12.40;;;;;;;;;;5012012;28;20233;-57
2023/01/20 08:33:11;;;;;;;15.47;10.23;;;;;;;;;;5013337;28;20319;-59
2023/01/20 08:35:39;;;;;;;14.37;10.80;;;;;;;;;;5011096;28;20398;-56
2023/01/20 08:38:06;;;;;;;16.57;11.03;;;;;;;;;;5014286;28;20218;-59
2023/01/20 08:40:33;;;;;;;13.03;9.83;;;;;;;;;;5026206;28;20207;-58
2023/01/20 08:43:00;;;;;;;15.43;11.33;;;;;;;;;;5015845;28;20384;-56
2023/01/20 08:45:30;;;;;;;13.57;10.20;;;;;;;;;;5009933;28;20211;-56
2023/01/20 08:47:58;;;;;;;14.60;9.67;;;;;;;;;;5011423;28;20212;-57
2023/01/20 08:50:26;;;;;;;12.97;9.47;;;;;;;;;;5013513;28;20240;-59
2023/01/20 08:52:53;;;;;;;12.37;9.27;;;;;;;;;;5016707;28;20204;-58
2023/01/20 08:55:20;;;;;;;14.10;9.53;;;;;;;;;;5014562;28;20228;-56
2023/01/20 08:57:47;;;;;;;13.20;9.67;;;;;;;;;;5014571;28;20216;-56
2023/01/20 09:00:15;;;;;;;12.27;8.47;;;;;;;;;;5014127;28;20216;-57
2023/01/20 09:02:42;;;;;;;12.60;9.27;;;;;;;;;;5006014;28;20213;-56
2023/01/20 09:05:11;;;;;;;11.60;8.70;;;;;;;;;;5014183;28;20214;-56
2023/01/20 09:07:38;;;;;;;10.80;8.83;;;;;;;;;;5019139;28;20197;-57
2023/01/20 09:10:06;;;;;;;14.07;9.63;;;;;;;;;;5013371;28;20254;-57
2023/01/20 09:12:33;;;;;;;11.13;9.13;;;;;;;;;;5015006;28;20204;-57
2023/01/20 09:15:00;;;;;;;14.00;9.87;;;;;;;;;;5015529;28;20395;-55
2023/01/20 09:17:27;;;;;;;13.23;9.83;;;;;;;;;;5011882;28;20228;-57
2023/01/20 09:19:55;;;;;;;13.33;9.50;;;;;;;;;;5015532;28;20211;-58
2023/01/20 09:22:23;;;;;;;13.90;10.07;;;;;;;;;;5016968;28;20210;-58
2023/01/20 09:24:50;;;;;;;15.73;10.40;;;;;;;;;;5015951;28;20293;-59
2023/01/20 09:27:17;;;;;;;15.20;10.40;;;;;;;;;;5018744;28;20228;-58
2023/01/20 09:29:45;;;;;;;13.13;10.37;;;;;;;;;;5017513;28;20205;-59
2023/01/20 09:32:14;;;;;;;13.03;10.17;;;;;;;;;;5014170;28;20201;-59
2023/01/20 09:34:41;;;;;;;16.03;9.60;;;;;;;;;;5012989;28;20208;-57
2023/01/20 09:45:33;;;;;;;16.13;11.10;;;;;;;;;;5012302;28;20228;-58
2023/01/20 09:48:04;;;;;;;15.47;10.77;;;;;;;;;;5011354;28;20209;-58
2023/01/20 09:53:31;;;;;;;14.77;11.27;;;;;;;;;;5006296;28;20195;-59
2023/01/20 09:56:01;;;;;;;15.07;10.93;;;;;;;;;;5008814;28;20197;-59
2023/01/20 09:58:33;;;;;;;16.13;11.43;;;;;;;;;;5012845;28;20281;-58
2023/01/20 10:01:06;;;;;;;15.27;11.10;;;;;;;;;;5017023;28;20266;-57
2023/01/20 10:03:35;;;;;;;16.33;11.27;;;;;;;;;;5011742;28;20207;-57
2023/01/20 10:06:04;;;;;;;16.70;12.10;;;;;;;;;;5016266;28;20208;-59
2023/01/20 10:08:35;;;;;;;16.03;12.40;;;;;;;;;;5013224;28;20555;-57
2023/01/20 10:11:07;;;;;;;16.77;12.23;;;;;;;;;;5019323;28;20218;-58
2023/01/20 10:13:37;;;;;;;15.90;12.27;;;;;;;;;;5018912;28;20200;-57
2023/01/20 10:16:06;;;;;;;16.07;12.43;;;;;;;;;;5009720;28;20219;-58
2023/01/20 10:18:38;;;;;;;18.07;12.73;;;;;;;;;;5011571;28;20229;-59
2023/01/20 10:21:10;;;;;;;15.27;11.90;;;;;;;;;;5011672;28;20300;-59
2023/01/20 10:23:41;;;;;;;17.73;12.33;;;;;;;;;;5016820;28;20219;-58
2023/01/20 10:26:15;;;;;;;21.43;12.40;;;;;;;;;;5011928;28;20204;-59
2023/01/20 10:28:44;;;;;;;14.67;12.13;;;;;;;;;;5008777;28;20201;-57
2023/01/20 10:31:13;;;;;;;23.10;12.40;;;;;;;;;;5017676;28;20200;-58
2023/01/20 10:33:44;;;;;;;16.50;13.27;;;;;;;;;;5013034;28;20200;-59
2023/01/20 10:36:14;;;;;;;16.27;12.37;;;;;;;;;;5017819;28;20206;-59
2023/01/20 10:38:46;;;;;;;18.13;13.03;;;;;;;;;;5013025;28;20308;-59
2023/01/20 10:41:19;;;;;;;16.77;12.43;;;;;;;;;;5012118;28;20200;-56
2023/01/20 10:43:46;;;;;;;16.00;12.93;;;;;;;;;;5016474;28;20204;-58
2023/01/20 10:46:20;;;;;;;16.27;12.73;;;;;;;;;;5014971;28;20197;-58
2023/01/20 10:48:56;;;;;;;18.00;13.40;;;;;;;;;;5013854;28;20200;-55
2023/01/20 10:51:28;;;;;;;18.40;12.83;;;;;;;;;;5016583;28;20192;-58
2023/01/20 10:53:59;;;;;;;19.83;14.10;;;;;;;;;;5021628;28;20196;-57
2023/01/20 10:56:35;;;;;;;17.57;12.57;;;;;;;;;;5019503;28;20204;-57
2023/01/20 10:59:05;;;;;;;20.50;14.07;;;;;;;;;;5017768;28;20269;-57
2023/01/20 11:01:32;;;;;;;21.63;13.77;;;;;;;;;;5014347;28;20196;-57
2023/01/20 11:03:59;;;;;;;18.73;14.10;;;;;;;;;;5011577;28;20245;-58
2023/01/20 11:06:27;;;;;;;20.17;14.30;;;;;;;;;;5010694;28;20201;-56
2023/01/20 11:08:54;;;;;;;17.50;13.93;;;;;;;;;;5008056;28;20234;-59
2023/01/20 11:11:23;;;;;;;18.67;13.77;;;;;;;;;;5016109;28;20205;-58
2023/01/20 11:13:53;;;;;;;21.43;14.10;;;;;;;;;;5009656;28;20379;-58
2023/01/20 11:16:23;;;;;;;19.83;14.47;;;;;;;;;;5015959;28;20205;-58
2023/01/20 11:18:57;;;;;;;16.40;13.80;;;;;;;;;;5012805;28;20208;-58
2023/01/20 11:21:25;;;;;;;19.10;14.60;;;;;;;;;;5018256;28;20199;-56
2023/01/20 11:23:54;;;;;;;22.97;14.67;;;;;;;;;;5019528;28;20200;-59
2023/01/20 11:26:23;;;;;;;19.53;15.17;;;;;;;;;;5020403;28;20333;-58
2023/01/20 11:28:54;;;;;;;19.97;14.50;;;;;;;;;;5010872;28;20549;-58
2023/01/20 11:31:22;;;;;;;17.00;13.70;;;;;;;;;;5016904;28;20271;-57
2023/01/20 11:33:56;;;;;;;19.10;15.17;;;;;;;;;;5012439;28;20204;-58
2023/01/20 11:36:25;;;;;;;21.10;15.23;;;;;;;;;;5020472;28;20218;-58
2023/01/20 11:38:53;;;;;;;20.87;15.97;;;;;;;;;;5018104;28;20308;-59
2023/01/20 11:41:20;;;;;;;20.33;15.17;;;;;;;;;;5017476;28;20200;-55
2023/01/20 11:43:48;;;;;;;25.23;17.00;;;;;;;;;;5020610;28;20208;-57
2023/01/20 11:46:28;;;;;;;20.20;14.97;;;;;;;;;;5023421;28;20332;-57
2023/01/20 11:49:07;;;;;;;17.80;13.80;;;;;;;;;;5017759;28;20244;-55
2023/01/20 11:51:34;;;;;;;15.77;13.60;;;;;;;;;;5018244;28;20208;-58
2023/01/20 11:54:07;;;;;;;16.70;12.50;;;;;;;;;;5016880;28;20192;-55
2023/01/20 11:56:39;;;;;;;15.77;12.33;;;;;;;;;;5013520;28;20471;-57
2023/01/20 11:59:18;;;;;;;14.90;11.53;;;;;;;;;;5016228;28;20230;-58
2023/01/20 12:01:56;;;;;;;15.73;11.80;;;;;;;;;;5015199;28;20203;-58
2023/01/20 12:04:30;;;;;;;15.90;12.40;;;;;;;;;;5013129;28;20210;-58
2023/01/20 12:07:02;;;;;;;13.70;12.00;;;;;;;;;;5017618;28;20199;-59
2023/01/20 12:09:30;;;;;;;15.10;11.87;;;;;;;;;;5012961;28;20220;-55
2023/01/20 12:11:59;;;;;;;15.43;11.30;;;;;;;;;;5016839;28;20201;-58
2023/01/20 12:14:30;;;;;;;15.63;11.50;;;;;;;;;;5007424;28;20351;-57
2023/01/20 12:17:04;;;;;;;12.70;10.23;;;;;;;;;;5008788;28;20232;-58
2023/01/20 12:19:34;;;;;;;17.10;10.43;;;;;;;;;;5014493;28;20223;-58
2023/01/20 12:22:05;;;;;;;12.43;10.37;;;;;;;;;;5017519;28;20201;-55
2023/01/20 12:25:06;;;;;;;13.23;10.30;;;;;;;;;;5009441;28;20196;-57
2023/01/20 12:27:24;;;;;;;15.03;10.73;;;;;;;;;;5011804;28;20206;-57
2023/01/20 12:29:54;;;;;;;12.83;10.50;;;;;;;;;;5007224;28;20204;-58
2023/01/20 12:32:23;;;;;;;13.47;10.33;;;;;;;;;;5014736;28;20211;-58
2023/01/20 12:34:50;;;;;;;13.50;9.57;;;;;;;;;;5005818;28;20212;-59
2023/01/20 12:37:20;;;;;;;12.73;10.20;;;;;;;;;;5015424;28;20209;-57
2023/01/20 12:40:03;;;;;;;12.53;9.37;;;;;;;;;;5017919;28;20235;-59
2023/01/20 12:42:42;;;;;;;12.70;10.47;;;;;;;;;;5013714;28;20250;-59
2023/01/20 12:45:16;;;;;;;16.67;9.93;;;;;;;;;;5013382;28;20250;-59
2023/01/20 12:47:52;;;;;;;12.93;9.97;;;;;;;;;;5014999;28;20261;-58
2023/01/20 12:50:24;;;;;;;13.87;9.90;;;;;;;;;;5015803;28;20246;-56
2023/01/20 12:53:02;;;;;;;11.23;9.47;;;;;;;;;;5013235;28;20200;-56
2023/01/20 12:55:37;;;;;;;12.67;10.00;;;;;;;;;;5014032;28;20200;-58
2023/01/20 12:58:09;;;;;;;10.70;9.20;;;;;;;;;;5014657;28;20238;-55
2023/01/20 13:00:57;;;;;;;11.93;9.43;;;;;;;;;;5012997;28;20204;-56
2023/01/20 13:03:42;;;;;;;11.90;9.17;;;;;;;;;;4993044;28;21366;-59
2023/01/20 13:06:20;;;;;;;11.00;9.37;;;;;;;;;;5015142;28;20305;-58
2023/01/20 13:08:49;;;;;;;9.33;8.37;;;;;;;;;;5009436;28;20527;-55
2023/01/20 13:11:20;;;;;;;13.27;9.07;;;;;;;;;;5011173;28;20311;-57
2023/01/20 13:13:58;;;;;;;10.80;8.80;;;;;;;;;;5014470;28;20196;-59
2023/01/20 13:16:31;;;;;;;10.83;9.03;;;;;;;;;;5013235;28;20193;-58
2023/01/20 13:19:03;;;;;;;9.80;8.50;;;;;;;;;;5012894;28;20240;-58
2023/01/20 13:21:32;;;;;;;10.00;8.47;;;;;;;;;;5009702;28;20239;-59
2023/01/20 13:24:01;;;;;;;11.47;8.93;;;;;;;;;;5011445;28;20204;-58
2023/01/20 13:26:28;;;;;;;12.17;8.53;;;;;;;;;;5005514;28;20204;-59
2023/01/20 13:28:56;;;;;;;10.33;8.80;;;;;;;;;;5009471;28;21342;-60
2023/01/20 13:31:31;;;;;;;11.07;9.20;;;;;;;;;;5011323;28;20227;-59
2023/01/20 13:34:13;;;;;;;11.13;8.70;;;;;;;;;;5007396;28;20215;-59
2023/01/20 13:37:02;;;;;;;10.93;8.83;;;;;;;;;;5009024;28;20277;-59
2023/01/20 13:39:42;;;;;;;10.67;8.40;;;;;;;;;;5007581;28;20350;-59
2023/01/20 13:42:24;;;;;;;10.87;9.20;;;;;;;;;;5009638;28;20212;-58
2023/01/20 13:45:10;;;;;;;11.87;9.83;;;;;;;;;;5007748;28;20209;-58
2023/01/20 13:47:52;;;;;;;10.90;9.30;;;;;;;;;;5008089;28;20406;-60
2023/01/20 13:50:23;;;;;;;11.30;9.00;;;;;;;;;;5009828;28;20205;-58
2023/01/20 13:53:06;;;;;;;12.83;9.87;;;;;;;;;;5003906;28;20211;-58
2023/01/20 13:55:48;;;;;;;12.90;9.50;;;;;;;;;;5011169;28;20291;-58
2023/01/20 13:58:15;;;;;;;12.43;9.70;;;;;;;;;;5010042;28;20234;-58
2023/01/20 14:00:43;;;;;;;12.97;10.07;;;;;;;;;;5006888;28;20209;-56
2023/01/20 14:03:13;;;;;;;12.07;10.10;;;;;;;;;;5011169;28;20386;-59
2023/01/20 14:05:40;;;;;;;13.40;10.77;;;;;;;;;;5009285;28;20211;-56
2023/01/20 14:08:14;;;;;;;12.33;10.83;;;;;;;;;;5006984;28;20222;-58
2023/01/20 14:10:42;;;;;;;12.87;9.80;;;;;;;;;;5011454;28;20207;-58
2023/01/20 14:13:10;;;;;;;12.43;10.17;;;;;;;;;;5009397;28;20201;-58
2023/01/20 14:15:38;;;;;;;12.27;9.83;;;;;;;;;;5011949;28;20419;-58
2023/01/20 14:18:12;;;;;;;12.10;9.47;;;;;;;;;;5013992;28;20204;-59
2023/01/20 14:20:39;;;;;;;10.93;8.77;;;;;;;;;;5013123;28;20225;-56
2023/01/20 14:23:28;;;;;;;12.47;9.37;;;;;;;;;;5014582;28;20414;-60
2023/01/20 14:26:00;;;;;;;13.20;8.60;;;;;;;;;;5011635;28;20493;-59
2023/01/20 14:28:27;;;;;;;12.03;9.20;;;;;;;;;;5010426;28;20206;-59
2023/01/20 14:31:21;;;;;;;10.43;8.97;;;;;;;;;;5011024;28;20209;-58
2023/01/20 14:33:51;;;;;;;10.47;8.93;;;;;;;;;;4960600;28;20212;-59
2023/01/20 14:36:19;;;;;;;11.23;8.57;;;;;;;;;;5011277;28;20284;-57
2023/01/20 14:38:52;;;;;;;10.83;8.87;;;;;;;;;;5009701;28;20196;-56
2023/01/20 14:41:33;;;;;;;10.77;9.33;;;;;;;;;;5016063;28;20480;-59
2023/01/20 14:44:01;;;;;;;11.83;9.23;;;;;;;;;;5008377;28;20204;-59
2023/01/20 14:46:29;;;;;;;11.07;9.77;;;;;;;;;;5009464;28;20453;-59